Time;durP1;ratioP1;P1;durP2;ratioP2;P2;SDS_P1;SDS_P2;PMS_P1;PMS_P2;Temp;Humidity;BMP_temperature;BMP_pressure;BME280_temperature;BME280_humidity;BME280_pressure;Samples;Min_cycle;Max_cycle;Signal;HPM_P1;HPM_P2
2023/08/29 00:01:10;;;;;;;2.40;1.42;;;12.20;99.90;;;;;;5126840;27;20785;-65
2023/08/29 00:03:36;;;;;;;1.63;1.52;;;12.20;99.90;;;;;;5131058;27;20114;-64
2023/08/29 00:06:05;;;;;;;1.77;1.60;;;12.20;99.90;;;;;;5121779;27;20046;-63
2023/08/29 00:08:34;;;;;;;2.40;1.60;;;12.30;99.90;;;;;;5116071;27;20081;-64
2023/08/29 00:11:04;;;;;;;1.70;1.35;;;12.30;99.90;;;;;;5116923;27;20039;-63
2023/08/29 00:13:30;;;;;;;1.40;1.25;;;12.30;99.90;;;;;;5136637;27;20042;-65
2023/08/29 00:15:56;;;;;;;1.35;1.20;;;12.20;99.90;;;;;;5112730;27;20393;-65
2023/08/29 00:18:22;;;;;;;1.40;1.30;;;12.20;99.90;;;;;;5132240;27;20432;-64
2023/08/29 00:20:48;;;;;;;1.17;1.08;;;12.20;99.90;;;;;;5131148;27;20035;-66
2023/08/29 00:23:14;;;;;;;1.10;1.00;;;12.10;99.90;;;;;;5097039;27;20031;-66
2023/08/29 00:25:40;;;;;;;1.33;1.10;;;12.10;99.90;;;;;;5112804;27;20062;-63
2023/08/29 00:28:07;;;;;;;0.95;0.95;;;12.00;99.90;;;;;;5117997;27;20039;-65
2023/08/29 00:30:37;;;;;;;1.20;1.10;;;12.00;99.90;;;;;;5132609;27;20388;-65
2023/08/29 00:33:03;;;;;;;1.40;1.20;;;12.00;99.90;;;;;;5124923;27;20061;-63
2023/08/29 00:35:29;;;;;;;1.30;1.20;;;12.00;99.90;;;;;;5125773;27;20031;-66
2023/08/29 00:37:55;;;;;;;1.02;1.00;;;12.00;99.90;;;;;;5112558;27;20065;-65
2023/08/29 00:40:21;;;;;;;1.20;1.10;;;12.00;99.90;;;;;;5113534;27;20450;-63
2023/08/29 00:42:47;;;;;;;1.83;1.40;;;12.00;99.90;;;;;;5117744;27;20035;-63
2023/08/29 00:45:12;;;;;;;1.50;1.40;;;12.00;99.90;;;;;;5137343;27;20408;-65
2023/08/29 00:47:38;;;;;;;1.30;1.20;;;12.00;99.90;;;;;;5140124;27;20077;-64
2023/08/29 00:50:07;;;;;;;1.67;1.00;;;11.90;99.90;;;;;;5121653;27;20047;-65
2023/08/29 00:52:33;;;;;;;1.70;0.95;;;11.90;99.90;;;;;;5120437;27;20447;-64
2023/08/29 00:54:59;;;;;;;3.17;0.90;;;11.90;99.90;;;;;;5139860;27;20038;-64
2023/08/29 00:57:25;;;;;;;0.70;0.70;;;11.80;99.90;;;;;;5139591;27;20412;-66
2023/08/29 00:59:51;;;;;;;0.77;0.77;;;11.80;99.90;;;;;;5122811;27;20047;-64
2023/08/29 01:02:17;;;;;;;0.80;0.80;;;11.80;99.90;;;;;;5119392;27;20043;-65
2023/08/29 01:04:42;;;;;;;1.00;1.00;;;11.70;99.90;;;;;;5121791;27;20043;-64
2023/08/29 01:07:08;;;;;;;0.80;0.80;;;11.70;99.90;;;;;;5137831;27;20441;-64
2023/08/29 01:09:35;;;;;;;1.95;1.30;;;11.70;99.90;;;;;;5120643;27;20038;-65
2023/08/29 01:12:16;;;;;;;2.25;1.13;;;11.60;99.90;;;;;;5105056;27;20117;-65
2023/08/29 01:14:59;;;;;;;1.02;1.00;;;11.60;99.90;;;;;;5121917;27;20442;-65
2023/08/29 01:17:54;;;;;;;2.00;1.23;;;11.60;99.90;;;;;;5137151;27;20050;-64
2023/08/29 01:20:22;;;;;;;1.50;1.40;;;11.50;99.90;;;;;;5036405;28;20137;-66
2023/08/29 01:23:23;;;;;;;2.13;1.80;;;11.50;99.90;;;;;;5028967;28;20466;-64
2023/08/29 01:25:55;;;;;;;1.67;1.30;;;11.40;99.90;;;;;;4972401;28;20057;-64
2023/08/29 01:28:21;;;;;;;1.77;1.67;;;11.40;99.90;;;;;;4993486;28;20389;-63
2023/08/29 01:30:48;;;;;;;2.33;1.48;;;11.40;99.90;;;;;;4993180;28;20049;-64
2023/08/29 01:33:14;;;;;;;1.63;1.15;;;11.50;99.90;;;;;;5000496;28;20046;-65
2023/08/29 01:35:45;;;;;;;1.95;1.50;;;11.50;99.90;;;;;;4979589;28;20567;-65
2023/08/29 01:38:11;;;;;;;0.70;0.70;;;11.50;99.90;;;;;;4994425;28;20405;-65
2023/08/29 01:40:37;;;;;;;1.38;0.70;;;11.50;99.90;;;;;;4996488;28;20038;-64
2023/08/29 01:43:03;;;;;;;2.60;0.80;;;11.50;99.90;;;;;;4978221;28;20046;-66
2023/08/29 01:45:29;;;;;;;0.90;0.80;;;11.40;99.90;;;;;;4965670;28;20672;-64
2023/08/29 01:47:54;;;;;;;1.33;0.65;;;11.40;99.90;;;;;;4981969;28;20038;-64
2023/08/29 01:50:21;;;;;;;1.02;0.65;;;11.40;99.90;;;;;;4977787;28;20080;-64
2023/08/29 01:52:49;;;;;;;0.88;0.88;;;11.40;99.90;;;;;;4980218;28;20449;-64
2023/08/29 01:55:16;;;;;;;0.90;0.90;;;11.40;99.90;;;;;;4974293;28;20038;-63
2023/08/29 01:57:43;;;;;;;7.20;1.83;;;11.30;99.90;;;;;;5052209;28;20048;-63
2023/08/29 02:00:10;;;;;;;1.10;1.00;;;11.30;99.90;;;;;;5056889;28;20102;-65
2023/08/29 02:02:38;;;;;;;0.90;0.90;;;11.30;99.90;;;;;;5088115;27;20103;-65
2023/08/29 02:05:04;;;;;;;1.52;0.93;;;11.20;99.90;;;;;;5127764;27;20043;-65
2023/08/29 02:07:29;;;;;;;1.30;1.08;;;11.20;99.90;;;;;;5146271;27;20096;-64
2023/08/29 02:09:55;;;;;;;1.20;1.10;;;11.20;99.90;;;;;;5115593;27;20043;-65
2023/08/29 02:12:20;;;;;;;1.20;1.10;;;11.20;99.90;;;;;;5099546;27;20051;-64
2023/08/29 02:14:47;;;;;;;2.65;1.05;;;11.20;99.90;;;;;;5098306;27;20050;-66
2023/08/29 02:17:12;;;;;;;1.23;1.13;;;11.10;99.90;;;;;;5115445;27;20051;-64
2023/08/29 02:19:38;;;;;;;1.20;1.10;;;11.10;99.90;;;;;;5115814;27;20043;-64
2023/08/29 02:22:04;;;;;;;1.90;0.90;;;11.10;99.90;;;;;;5119842;27;20031;-65
2023/08/29 02:24:30;;;;;;;1.33;1.23;;;11.00;99.90;;;;;;5097869;27;20049;-63
2023/08/29 02:26:55;;;;;;;1.92;1.30;;;11.00;99.90;;;;;;5114599;27;20038;-64
2023/08/29 02:29:21;;;;;;;2.47;1.30;;;10.90;99.90;;;;;;5128425;27;20047;-64
2023/08/29 02:31:47;;;;;;;2.35;1.40;;;10.90;99.90;;;;;;5135442;27;20034;-64
2023/08/29 02:34:12;;;;;;;2.40;1.40;;;10.90;99.90;;;;;;5136040;27;20179;-64
2023/08/29 02:36:38;;;;;;;3.00;1.42;;;10.90;99.90;;;;;;5116101;27;20061;-65
2023/08/29 02:39:03;;;;;;;2.20;1.60;;;10.90;99.90;;;;;;5117485;27;20053;-65
2023/08/29 02:41:30;;;;;;;2.22;1.70;;;11.00;99.90;;;;;;5114647;27;20042;-64
2023/08/29 02:43:56;;;;;;;1.52;1.42;;;11.00;99.90;;;;;;5114745;27;20031;-64
2023/08/29 02:46:21;;;;;;;3.20;1.50;;;11.00;99.90;;;;;;5114628;27;20095;-64
2023/08/29 02:48:47;;;;;;;2.95;1.45;;;11.00;99.90;;;;;;5114800;27;20042;-64
2023/08/29 02:51:12;;;;;;;5.70;1.63;;;11.00;99.90;;;;;;5125910;27;20042;-64
2023/08/29 02:53:38;;;;;;;2.30;1.60;;;10.90;99.90;;;;;;5135990;27;20466;-66
2023/08/29 02:56:04;;;;;;;2.92;1.40;;;10.90;99.90;;;;;;5114388;27;20031;-63
2023/08/29 02:58:29;;;;;;;2.53;1.40;;;10.90;99.90;;;;;;5138489;27;20039;-64
2023/08/29 03:00:56;;;;;;;1.55;1.45;;;10.90;99.90;;;;;;5126819;27;20046;-63
2023/08/29 03:03:26;;;;;;;1.50;1.40;;;10.80;99.90;;;;;;5117583;27;20079;-64
2023/08/29 03:05:59;;;;;;;2.55;1.40;;;10.80;99.90;;;;;;5110588;27;20600;-65
2023/08/29 03:08:26;;;;;;;2.15;1.15;;;10.80;99.90;;;;;;5107544;28;20058;-65
2023/08/29 03:10:52;;;;;;;1.40;1.30;;;10.70;99.90;;;;;;5106806;28;20040;-66
2023/08/29 03:13:18;;;;;;;1.48;1.38;;;10.70;99.90;;;;;;5110678;28;20035;-64
2023/08/29 03:15:47;;;;;;;1.50;1.40;;;10.70;99.90;;;;;;5109484;28;20512;-64
2023/08/29 03:18:13;;;;;;;1.67;1.50;;;10.70;99.90;;;;;;5110474;28;20035;-65
2023/08/29 03:20:40;;;;;;;1.77;1.67;;;10.70;99.90;;;;;;5106005;28;20040;-63
2023/08/29 03:23:05;;;;;;;2.03;1.83;;;10.70;99.90;;;;;;5110303;28;20035;-65
2023/08/29 03:25:31;;;;;;;2.20;1.88;;;10.70;99.90;;;;;;5109906;28;20039;-65
2023/08/29 03:27:57;;;;;;;2.47;1.65;;;10.60;99.90;;;;;;5110023;28;20397;-64
2023/08/29 03:30:25;;;;;;;1.73;1.48;;;10.70;99.90;;;;;;5107474;28;20442;-65
2023/08/29 03:32:51;;;;;;;1.48;1.38;;;10.60;99.90;;;;;;5108861;28;20044;-64
2023/08/29 03:35:17;;;;;;;3.28;1.63;;;10.60;99.90;;;;;;5110492;28;20474;-65
2023/08/29 03:37:43;;;;;;;2.38;1.48;;;10.50;99.90;;;;;;5108541;27;20045;-64
2023/08/29 03:40:10;;;;;;;3.80;1.67;;;10.50;99.90;;;;;;5090583;28;20097;-63
2023/08/29 03:42:35;;;;;;;1.88;1.60;;;10.50;99.90;;;;;;5107417;28;20043;-64
2023/08/29 03:45:02;;;;;;;1.23;1.13;;;10.50;99.90;;;;;;5092793;28;20048;-65
2023/08/29 03:47:28;;;;;;;1.20;1.10;;;10.50;99.90;;;;;;5108581;28;20067;-65
2023/08/29 03:49:53;;;;;;;1.98;1.30;;;10.50;99.90;;;;;;5109983;28;20555;-63
2023/08/29 03:52:23;;;;;;;1.30;1.20;;;10.50;99.90;;;;;;5108430;28;20032;-65
2023/08/29 03:54:49;;;;;;;1.23;1.13;;;10.50;99.90;;;;;;5110153;28;20078;-65
2023/08/29 03:57:15;;;;;;;4.75;1.48;;;10.40;99.90;;;;;;5106757;28;20130;-65
2023/08/29 03:59:40;;;;;;;1.90;1.17;;;10.40;99.90;;;;;;5109500;28;20560;-64
2023/08/29 04:02:07;;;;;;;1.60;1.08;;;10.30;99.90;;;;;;5118924;27;20440;-63
2023/08/29 04:04:34;;;;;;;0.35;0.30;;;10.30;99.90;;;;;;5120291;27;20063;-64
2023/08/29 04:06:59;;;;;;;0.60;0.60;;;10.30;99.90;;;;;;5118874;27;20488;-64
2023/08/29 04:09:25;;;;;;;0.30;0.30;;;10.30;99.90;;;;;;5113395;27;20068;-65
2023/08/29 04:11:51;;;;;;;0.82;0.70;;;10.30;99.90;;;;;;5119232;27;20046;-64
2023/08/29 04:14:17;;;;;;;0.70;0.70;;;10.30;99.90;;;;;;5136030;27;20027;-64
2023/08/29 04:16:44;;;;;;;1.70;0.90;;;10.20;99.90;;;;;;5095294;27;20063;-64
2023/08/29 04:19:10;;;;;;;1.00;1.00;;;10.20;99.90;;;;;;5121879;27;20043;-65
2023/08/29 04:21:36;;;;;;;0.98;0.80;;;10.20;99.90;;;;;;5112931;27;20050;-63
2023/08/29 04:24:02;;;;;;;1.08;0.98;;;10.20;99.90;;;;;;5114736;27;20030;-64
2023/08/29 04:26:28;;;;;;;0.80;0.80;;;10.20;99.90;;;;;;5125472;27;20046;-63
2023/08/29 04:28:54;;;;;;;2.72;1.40;;;10.20;99.90;;;;;;5125799;27;20043;-63
2023/08/29 04:31:20;;;;;;;1.83;1.58;;;10.20;99.90;;;;;;5112465;27;20046;-64
2023/08/29 04:33:46;;;;;;;2.95;1.40;;;10.20;99.90;;;;;;5122027;27;20043;-63
2023/08/29 04:36:16;;;;;;;2.20;1.90;;;10.20;99.90;;;;;;5113561;27;20375;-63
2023/08/29 04:38:47;;;;;;;2.38;2.17;;;10.20;99.90;;;;;;5112797;27;20119;-65
2023/08/29 04:41:13;;;;;;;2.60;1.90;;;10.10;99.90;;;;;;5112620;27;20046;-64
2023/08/29 04:43:42;;;;;;;3.22;2.10;;;10.10;99.90;;;;;;5127278;27;20042;-64
2023/08/29 04:46:07;;;;;;;3.03;2.10;;;10.10;99.90;;;;;;5132975;27;20035;-65
2023/08/29 04:48:34;;;;;;;1.80;1.05;;;10.00;99.90;;;;;;5132830;27;20042;-65
2023/08/29 04:51:00;;;;;;;1.60;1.50;;;10.00;99.90;;;;;;5133231;27;20113;-65
2023/08/29 04:53:26;;;;;;;2.33;1.98;;;10.00;99.90;;;;;;5112758;27;20092;-65
2023/08/29 04:56:02;;;;;;;3.15;2.10;;;10.00;99.90;;;;;;5112544;28;20052;-64
2023/08/29 04:58:29;;;;;;;4.05;1.70;;;10.00;99.90;;;;;;5112878;27;20112;-64
2023/08/29 05:00:55;;;;;;;2.53;1.65;;;10.00;99.90;;;;;;5112317;28;20039;-64
2023/08/29 05:03:21;;;;;;;1.88;1.50;;;10.00;99.90;;;;;;5095211;28;20115;-65
2023/08/29 05:05:47;;;;;;;3.78;1.80;;;10.00;99.90;;;;;;5123796;27;20034;-65
2023/08/29 05:08:13;;;;;;;2.30;1.38;;;10.00;99.90;;;;;;5133417;27;20039;-65
2023/08/29 05:10:39;;;;;;;1.98;1.42;;;10.00;99.90;;;;;;5133032;27;20046;-65
2023/08/29 05:13:04;;;;;;;2.40;1.40;;;10.00;99.90;;;;;;5133373;27;20050;-65
2023/08/29 05:15:31;;;;;;;1.90;1.25;;;9.90;99.90;;;;;;5133077;27;20172;-63
2023/08/29 05:17:57;;;;;;;1.20;1.10;;;9.90;99.90;;;;;;5133709;27;20031;-65
2023/08/29 05:20:23;;;;;;;2.38;1.20;;;9.90;99.90;;;;;;5132997;27;20083;-65
2023/08/29 05:22:48;;;;;;;2.38;1.42;;;9.90;99.90;;;;;;5133021;27;20118;-64
2023/08/29 05:25:14;;;;;;;3.78;1.40;;;9.90;99.90;;;;;;5133538;27;20086;-63
2023/08/29 05:27:40;;;;;;;1.40;1.30;;;10.00;99.90;;;;;;5133461;27;20042;-64
2023/08/29 05:30:07;;;;;;;3.13;1.20;;;10.00;99.90;;;;;;5136942;27;20128;-64
2023/08/29 05:32:33;;;;;;;2.35;1.10;;;9.90;99.90;;;;;;5136718;27;20100;-64
2023/08/29 05:34:59;;;;;;;1.25;1.15;;;9.90;99.90;;;;;;5136867;27;20636;-65
2023/08/29 05:37:24;;;;;;;0.90;0.90;;;9.90;99.90;;;;;;5136678;27;20039;-64
2023/08/29 05:39:50;;;;;;;1.10;1.00;;;9.90;99.90;;;;;;5154793;27;20041;-64
2023/08/29 05:42:16;;;;;;;1.08;1.08;;;9.90;99.90;;;;;;5136875;27;20046;-63
2023/08/29 05:44:42;;;;;;;1.10;1.00;;;9.90;99.90;;;;;;5136957;27;20039;-65
2023/08/29 05:47:07;;;;;;;0.90;0.90;;;10.00;99.90;;;;;;5136899;27;20039;-64
2023/08/29 05:49:34;;;;;;;1.20;1.10;;;10.00;99.90;;;;;;5136727;27;20078;-65
2023/08/29 05:51:59;;;;;;;4.45;1.70;;;10.10;99.90;;;;;;5136565;27;20043;-65
2023/08/29 05:54:25;;;;;;;2.22;1.25;;;10.10;99.90;;;;;;5136975;27;20057;-64
2023/08/29 05:56:51;;;;;;;5.88;1.38;;;10.10;99.90;;;;;;5155050;27;20366;-65
2023/08/29 05:59:16;;;;;;;8.55;1.35;;;10.20;99.90;;;;;;5136832;27;20037;-64
2023/08/29 06:01:42;;;;;;;11.02;1.70;;;10.20;99.90;;;;;;5136261;27;20081;-64
2023/08/29 06:04:08;;;;;;;2.42;1.15;;;10.20;99.90;;;;;;5132984;27;20039;-64
2023/08/29 06:06:34;;;;;;;2.92;1.20;;;10.30;99.90;;;;;;5132842;27;20082;-65
2023/08/29 06:08:59;;;;;;;6.00;1.30;;;10.30;99.90;;;;;;5132876;27;20330;-64
2023/08/29 06:11:29;;;;;;;4.53;1.27;;;10.30;99.90;;;;;;5116138;27;20035;-64
2023/08/29 06:13:54;;;;;;;5.65;1.10;;;10.40;99.90;;;;;;5132870;27;20054;-63
2023/08/29 06:16:20;;;;;;;3.72;1.27;;;10.50;99.90;;;;;;5132920;27;20040;-63
2023/08/29 06:18:47;;;;;;;4.85;1.45;;;10.60;99.90;;;;;;5132650;27;20043;-64
2023/08/29 06:21:12;;;;;;;3.35;1.70;;;10.60;99.90;;;;;;5114972;27;20039;-65
2023/08/29 06:23:38;;;;;;;5.43;1.50;;;10.70;99.90;;;;;;5133890;27;20443;-64
2023/08/29 06:26:04;;;;;;;1.30;1.10;;;10.80;99.90;;;;;;5133913;27;20034;-64
2023/08/29 06:28:31;;;;;;;0.95;0.95;;;10.90;99.90;;;;;;5132668;27;20046;-66
2023/08/29 06:31:02;;;;;;;2.95;1.10;;;11.00;99.90;;;;;;5132610;27;20490;-63
2023/08/29 06:33:28;;;;;;;1.30;1.20;;;11.10;99.90;;;;;;5132811;27;20039;-63
2023/08/29 06:35:54;;;;;;;1.50;1.30;;;11.20;99.90;;;;;;5132117;27;20066;-65
2023/08/29 06:38:19;;;;;;;1.98;1.48;;;11.30;99.90;;;;;;5132661;27;20042;-64
2023/08/29 06:40:45;;;;;;;4.03;1.33;;;11.50;99.90;;;;;;5131633;27;20035;-65
2023/08/29 06:43:11;;;;;;;4.47;1.23;;;11.70;99.90;;;;;;5132680;27;20390;-65
2023/08/29 06:45:36;;;;;;;2.17;1.50;;;11.80;99.90;;;;;;5133664;27;20031;-65
2023/08/29 06:48:02;;;;;;;2.97;1.50;;;12.00;99.90;;;;;;5132051;27;20043;-65
2023/08/29 06:50:28;;;;;;;2.60;1.13;;;12.20;99.90;;;;;;5132174;27;20035;-64
2023/08/29 06:52:53;;;;;;;3.25;1.63;;;12.50;99.90;;;;;;5131939;27;20420;-65
2023/08/29 06:55:19;;;;;;;6.57;1.60;;;12.70;99.90;;;;;;5132608;27;20043;-65
2023/08/29 06:57:45;;;;;;;1.52;1.42;;;12.90;99.90;;;;;;5133266;27;20504;-64
2023/08/29 07:00:12;;;;;;;1.90;1.50;;;13.10;99.90;;;;;;5131965;27;20031;-64
2023/08/29 07:02:37;;;;;;;1.65;1.55;;;13.30;99.90;;;;;;5134089;27;20393;-64
2023/08/29 07:05:04;;;;;;;1.83;1.60;;;13.50;99.90;;;;;;5134925;27;20047;-64
2023/08/29 07:07:30;;;;;;;4.07;1.90;;;13.70;99.90;;;;;;5135359;27;20512;-65
2023/08/29 07:09:55;;;;;;;1.92;1.63;;;13.90;99.90;;;;;;5135046;27;20110;-65
2023/08/29 07:12:21;;;;;;;3.22;2.15;;;14.10;99.90;;;;;;5135248;27;20042;-65
2023/08/29 07:14:46;;;;;;;2.67;1.67;;;14.30;99.90;;;;;;5135444;27;20397;-63
2023/08/29 07:17:12;;;;;;;5.88;2.00;;;14.50;99.90;;;;;;5134869;27;20042;-65
2023/08/29 07:19:38;;;;;;;2.10;1.90;;;14.60;99.90;;;;;;5117487;27;20097;-65
2023/08/29 07:22:04;;;;;;;2.95;1.50;;;14.70;99.90;;;;;;5134662;27;20094;-65
2023/08/29 07:24:29;;;;;;;3.33;1.60;;;14.80;99.90;;;;;;5135018;27;20030;-65
2023/08/29 07:26:56;;;;;;;3.30;1.90;;;15.00;99.90;;;;;;5134757;27;20179;-65
2023/08/29 07:29:22;;;;;;;2.22;1.80;;;15.20;99.90;;;;;;5135166;27;20061;-65
2023/08/29 07:31:48;;;;;;;3.63;1.83;;;15.30;99.90;;;;;;5135145;27;20042;-65
2023/08/29 07:34:15;;;;;;;2.53;1.63;;;15.40;99.90;;;;;;5134417;27;20035;-64
2023/08/29 07:36:41;;;;;;;3.45;1.80;;;15.60;99.90;;;;;;5153226;27;20094;-65
2023/08/29 07:39:07;;;;;;;2.30;1.42;;;15.70;99.90;;;;;;5134517;27;20117;-64
2023/08/29 07:41:32;;;;;;;4.15;1.73;;;15.80;99.90;;;;;;5134734;27;20045;-63
2023/08/29 07:43:58;;;;;;;4.78;1.42;;;15.90;99.90;;;;;;5153015;27;20049;-64
2023/08/29 07:46:23;;;;;;;2.80;1.60;;;16.00;99.90;;;;;;5134811;27;20030;-65
2023/08/29 07:48:50;;;;;;;5.88;1.40;;;16.10;99.90;;;;;;5153025;27;20039;-64
2023/08/29 07:51:16;;;;;;;4.43;1.85;;;16.10;99.90;;;;;;5132919;27;20054;-65
2023/08/29 07:53:41;;;;;;;3.25;1.40;;;16.20;99.90;;;;;;5134734;27;20477;-66
2023/08/29 07:56:07;;;;;;;2.50;1.73;;;16.30;99.90;;;;;;5134426;27;20046;-65
2023/08/29 07:58:33;;;;;;;2.45;1.60;;;16.40;99.90;;;;;;5116793;27;20103;-65
2023/08/29 08:00:58;;;;;;;1.70;1.60;;;16.40;99.90;;;;;;5116856;27;20082;-64
2023/08/29 08:03:24;;;;;;;3.47;2.00;;;16.40;99.90;;;;;;5152647;27;20059;-66
2023/08/29 08:05:50;;;;;;;2.28;1.70;;;16.50;99.90;;;;;;5134196;27;20065;-64
2023/08/29 08:08:15;;;;;;;5.75;1.90;;;16.50;99.90;;;;;;5133910;27;20069;-65
2023/08/29 08:10:41;;;;;;;2.72;2.20;;;16.50;99.90;;;;;;5134504;27;20046;-64
2023/08/29 08:13:07;;;;;;;2.97;1.77;;;16.50;99.90;;;;;;5133902;27;20038;-64
2023/08/29 08:15:32;;;;;;;2.55;1.80;;;16.50;99.90;;;;;;5152536;27;20049;-65
2023/08/29 08:17:58;;;;;;;3.08;2.22;;;16.50;99.90;;;;;;5133843;27;20153;-63
2023/08/29 08:20:24;;;;;;;2.50;2.30;;;16.60;99.90;;;;;;5133815;27;20038;-66
2023/08/29 08:22:49;;;;;;;2.42;2.20;;;16.60;99.90;;;;;;5134043;27;20434;-64
2023/08/29 08:25:15;;;;;;;6.18;2.90;;;16.60;99.90;;;;;;5116794;27;20039;-65
2023/08/29 08:27:41;;;;;;;3.65;2.90;;;16.70;99.90;;;;;;5116676;27;20183;-65
2023/08/29 08:30:08;;;;;;;3.53;2.72;;;16.90;99.90;;;;;;5133885;27;20126;-65
2023/08/29 08:32:33;;;;;;;8.77;2.95;;;16.90;99.90;;;;;;5133535;27;20038;-66
2023/08/29 08:34:59;;;;;;;6.10;2.65;;;17.00;99.90;;;;;;5116448;27;20043;-64
2023/08/29 08:37:25;;;;;;;3.08;2.40;;;17.10;99.90;;;;;;5152283;27;20396;-64
2023/08/29 08:39:51;;;;;;;3.58;2.55;;;17.30;99.90;;;;;;5133856;27;20027;-65
2023/08/29 08:42:19;;;;;;;3.38;2.63;;;17.50;99.90;;;;;;5133856;27;20035;-63
2023/08/29 08:44:45;;;;;;;4.28;2.33;;;17.80;99.90;;;;;;5152343;27;20038;-64
2023/08/29 08:47:12;;;;;;;2.10;1.88;;;18.00;99.90;;;;;;5133474;27;20035;-64
2023/08/29 08:49:38;;;;;;;3.47;2.28;;;18.20;99.90;;;;;;5133538;27;20046;-64
2023/08/29 08:52:04;;;;;;;3.65;2.47;;;18.40;99.90;;;;;;5133894;27;20038;-66
2023/08/29 08:54:30;;;;;;;3.88;2.55;;;18.60;99.90;;;;;;5116564;27;20125;-65
2023/08/29 08:56:57;;;;;;;3.17;2.42;;;18.80;99.90;;;;;;5116045;27;20579;-65
2023/08/29 08:59:26;;;;;;;4.35;2.28;;;19.00;99.90;;;;;;5133320;27;20075;-66
2023/08/29 09:01:55;;;;;;;4.43;2.30;;;19.10;99.90;;;;;;5133775;27;20064;-64
2023/08/29 09:04:22;;;;;;;5.00;2.40;;;19.20;99.90;;;;;;5136750;27;20054;-64
2023/08/29 09:06:48;;;;;;;4.30;2.45;;;19.50;99.90;;;;;;5137674;27;20049;-65
2023/08/29 09:09:16;;;;;;;2.72;2.05;;;19.70;99.90;;;;;;5137562;27;20038;-65
2023/08/29 09:11:42;;;;;;;16.00;3.03;;;20.00;99.90;;;;;;5116857;27;20043;-65
2023/08/29 09:14:08;;;;;;;3.03;2.10;;;19.90;99.90;;;;;;5116856;27;20145;-66
2023/08/29 09:16:37;;;;;;;4.13;2.05;;;19.60;99.90;;;;;;5116535;27;20099;-64
2023/08/29 09:19:06;;;;;;;3.53;2.00;;;19.40;99.90;;;;;;5116684;27;20035;-64
2023/08/29 09:21:32;;;;;;;3.15;2.35;;;19.10;99.90;;;;;;5116719;27;20042;-66
2023/08/29 09:23:58;;;;;;;3.15;2.15;;;19.00;99.90;;;;;;5116907;27;20047;-64
2023/08/29 09:26:34;;;;;;;4.85;2.05;;;19.20;99.90;;;;;;5116867;27;20046;-65
2023/08/29 09:29:15;;;;;;;2.13;1.92;;;19.40;99.90;;;;;;5116780;27;20087;-65
2023/08/29 09:31:40;;;;;;;3.80;2.10;;;19.50;99.90;;;;;;5116467;27;20082;-64
2023/08/29 09:34:06;;;;;;;1.52;0.95;;;19.60;99.90;;;;;;5116629;27;20515;-64
2023/08/29 09:36:33;;;;;;;2.28;0.93;;;19.60;99.90;;;;;;5116518;27;20402;-65
2023/08/29 09:39:00;;;;;;;1.02;0.80;;;19.50;99.90;;;;;;5135126;27;20046;-65
2023/08/29 09:41:26;;;;;;;1.00;0.70;;;19.30;99.90;;;;;;5134637;27;20091;-65
2023/08/29 09:43:52;;;;;;;1.23;0.80;;;19.20;99.90;;;;;;5116297;27;20431;-65
2023/08/29 09:46:24;;;;;;;2.28;1.02;;;19.30;99.90;;;;;;5116628;27;20121;-65
2023/08/29 09:48:56;;;;;;;5.07;1.10;;;19.60;99.90;;;;;;5116389;27;20504;-65
2023/08/29 09:51:26;;;;;;;;;;;19.70;99.90;;;;;;5116717;27;20069;-64
2023/08/29 09:53:56;;;;;;;3.13;1.08;;;19.60;99.90;;;;;;5135776;27;20349;-65
2023/08/29 09:56:25;;;;;;;1.90;1.00;;;19.50;99.90;;;;;;5136662;27;20053;-65
2023/08/29 09:58:52;;;;;;;3.25;0.65;;;19.40;99.90;;;;;;5119570;27;20031;-66
2023/08/29 10:01:20;;;;;;;3.13;0.80;;;19.20;99.90;;;;;;5136853;27;20039;-64
2023/08/29 10:03:47;;;;;;;1.63;0.68;;;19.00;99.90;;;;;;5154907;27;20447;-65
2023/08/29 10:06:16;;;;;;;1.30;0.90;;;18.90;99.90;;;;;;5136517;27;20056;-64
2023/08/29 10:08:46;;;;;;;0.77;0.50;;;18.70;99.90;;;;;;5136500;27;20449;-64
2023/08/29 10:11:12;;;;;;;0.90;0.80;;;18.60;99.90;;;;;;5136429;27;20113;-66
2023/08/29 10:13:40;;;;;;;2.58;1.00;;;18.60;99.90;;;;;;5154425;27;20034;-64
2023/08/29 10:16:08;;;;;;;1.80;1.00;;;18.60;99.90;;;;;;5135675;27;20489;-65
2023/08/29 10:18:34;;;;;;;1.25;0.85;;;18.60;99.90;;;;;;5136318;27;20078;-64
2023/08/29 10:21:01;;;;;;;1.75;0.75;;;18.40;99.90;;;;;;5136089;27;20061;-65
2023/08/29 10:23:28;;;;;;;0.98;0.90;;;18.40;99.90;;;;;;5136263;27;20042;-64
2023/08/29 10:25:58;;;;;;;1.10;1.00;;;18.30;99.90;;;;;;5136155;27;20411;-64
2023/08/29 10:28:24;;;;;;;1.33;0.90;;;18.20;99.90;;;;;;5136075;27;20034;-64
2023/08/29 10:30:52;;;;;;;1.50;1.00;;;18.20;99.90;;;;;;5135786;27;20031;-64
2023/08/29 10:33:19;;;;;;;3.40;1.60;;;18.20;99.90;;;;;;5136289;27;20037;-65
2023/08/29 10:35:48;;;;;;;2.08;1.05;;;18.20;99.90;;;;;;5135791;27;20094;-64
2023/08/29 10:38:16;;;;;;;1.50;1.00;;;18.20;99.90;;;;;;5135965;27;20046;-64
2023/08/29 10:40:43;;;;;;;3.63;1.13;;;18.10;99.90;;;;;;5135742;27;20050;-64
2023/08/29 10:43:20;;;;;;;1.63;1.00;;;18.10;99.90;;;;;;5154356;27;20083;-64
2023/08/29 10:45:51;;;;;;;1.98;0.93;;;18.10;99.90;;;;;;5135444;27;20405;-65
2023/08/29 10:48:41;;;;;;;7.65;1.20;;;18.10;99.90;;;;;;5135712;27;20045;-66
2023/08/29 10:51:14;;;;;;;3.28;1.20;;;18.10;99.90;;;;;;5118196;27;20053;-65
2023/08/29 10:53:56;;;;;;;2.05;0.90;;;18.00;99.90;;;;;;5135462;27;20089;-65
2023/08/29 10:56:27;;;;;;;1.70;1.40;;;18.10;99.90;;;;;;5135501;27;20050;-64
2023/08/29 10:58:53;;;;;;;2.03;1.40;;;18.10;99.90;;;;;;5135597;27;20043;-65
2023/08/29 11:01:26;;;;;;;2.45;1.40;;;18.10;99.90;;;;;;5135571;27;20026;-65
2023/08/29 11:03:53;;;;;;;1.45;1.30;;;18.10;99.90;;;;;;5131637;27;20058;-66
2023/08/29 11:06:21;;;;;;;6.97;1.67;;;18.20;99.90;;;;;;5131973;27;20088;-64
2023/08/29 11:08:47;;;;;;;2.50;1.65;;;18.30;99.90;;;;;;5131616;27;20042;-64
2023/08/29 11:11:20;;;;;;;5.32;1.90;;;18.40;99.90;;;;;;5132923;27;20027;-64
2023/08/29 11:14:02;;;;;;;7.65;2.10;;;18.60;99.90;;;;;;5131890;27;20059;-66
2023/08/29 11:16:35;;;;;;;4.47;1.63;;;18.80;99.90;;;;;;5114523;27;20070;-64
2023/08/29 11:19:15;;;;;;;2.95;1.83;;;19.10;99.90;;;;;;5131337;27;20043;-65
2023/08/29 11:21:44;;;;;;;3.72;1.88;;;19.50;99.90;;;;;;5131593;27;20042;-65
2023/08/29 11:24:10;;;;;;;4.60;2.33;;;19.80;99.90;;;;;;5131538;27;20061;-65
2023/08/29 11:26:40;;;;;;;2.60;2.03;;;20.20;99.90;;;;;;5131609;27;20043;-64
2023/08/29 11:29:06;;;;;;;3.63;1.90;;;20.70;99.90;;;;;;5131403;27;20046;-65
2023/08/29 11:31:39;;;;;;;2.38;2.00;;;21.10;99.90;;;;;;5131761;27;20071;-64
2023/08/29 11:34:10;;;;;;;2.08;1.83;;;21.50;99.90;;;;;;5130920;27;20125;-65
2023/08/29 11:36:36;;;;;;;3.45;1.60;;;21.80;99.90;;;;;;5131442;27;20031;-63
2023/08/29 11:39:01;;;;;;;2.13;1.92;;;22.10;99.90;;;;;;5131363;27;20043;-65
2023/08/29 11:41:29;;;;;;;2.85;2.30;;;22.00;99.90;;;;;;5131221;27;20031;-65
2023/08/29 11:43:58;;;;;;;3.50;2.15;;;22.20;99.90;;;;;;5131031;27;20094;-65
2023/08/29 11:46:32;;;;;;;3.92;2.00;;;22.30;99.90;;;;;;5131027;27;20383;-65
2023/08/29 11:48:57;;;;;;;2.40;1.60;;;22.60;99.90;;;;;;5130970;27;20084;-65
2023/08/29 11:51:23;;;;;;;3.78;2.00;;;22.70;99.90;;;;;;5131267;27;20078;-65
2023/08/29 11:53:50;;;;;;;2.00;1.60;;;22.70;99.90;;;;;;5132285;27;20054;-65
2023/08/29 11:56:16;;;;;;;4.43;1.77;;;22.80;99.90;;;;;;5130547;27;20050;-65
2023/08/29 11:58:42;;;;;;;2.85;1.55;;;22.70;99.90;;;;;;5132424;27;20462;-65
2023/08/29 12:01:08;;;;;;;2.22;1.38;;;22.50;99.90;;;;;;5130569;27;20039;-66
2023/08/29 12:03:38;;;;;;;2.55;1.80;;;22.20;99.90;;;;;;5128356;27;20053;-65
2023/08/29 12:06:10;;;;;;;2.42;1.65;;;22.10;99.90;;;;;;5130653;27;20103;-64
2023/08/29 12:08:36;;;;;;;1.70;1.60;;;22.00;99.90;;;;;;5130849;27;20039;-66
2023/08/29 12:11:02;;;;;;;5.03;1.73;;;21.90;99.90;;;;;;5130573;27;20101;-64
2023/08/29 12:13:27;;;;;;;2.10;1.90;;;21.70;99.90;;;;;;5130517;27;20067;-65
2023/08/29 12:15:53;;;;;;;2.80;2.10;;;21.30;99.90;;;;;;5130591;27;20050;-65
2023/08/29 12:18:21;;;;;;;4.07;2.30;;;21.10;99.90;;;;;;5130377;27;20058;-64
2023/08/29 12:20:47;;;;;;;4.45;1.90;;;20.90;99.90;;;;;;5130552;27;20107;-64
2023/08/29 12:23:22;;;;;;;2.17;1.50;;;20.80;99.90;;;;;;5130407;27;20042;-65
2023/08/29 12:25:48;;;;;;;31.05;3.30;;;20.60;99.90;;;;;;5130643;27;20466;-65
2023/08/29 12:28:13;;;;;;;3.30;2.38;;;20.40;99.90;;;;;;5130380;27;20117;-64
2023/08/29 12:30:39;;;;;;;1.80;1.65;;;20.30;99.90;;;;;;5130586;27;20080;-66
2023/08/29 12:33:05;;;;;;;3.47;2.00;;;20.00;99.90;;;;;;5130244;27;20035;-64
2023/08/29 12:35:31;;;;;;;3.88;1.98;;;20.00;99.90;;;;;;5130361;27;20042;-65
2023/08/29 12:37:56;;;;;;;3.85;2.00;;;20.00;99.90;;;;;;5129533;27;20039;-65
2023/08/29 12:40:22;;;;;;;4.32;2.05;;;20.00;99.90;;;;;;5129748;27;20590;-66
2023/08/29 12:42:49;;;;;;;2.30;1.90;;;19.90;99.90;;;;;;5130620;27;20035;-64
2023/08/29 12:45:15;;;;;;;2.75;1.92;;;19.90;99.90;;;;;;5130331;28;20482;-65
2023/08/29 12:47:41;;;;;;;3.10;2.55;;;19.90;99.90;;;;;;5130358;28;20050;-64